createdAt,value
2022-10-11T00:01:55.331Z,10.13
2022-10-11T00:04:21.757Z,10.82
2022-10-11T00:06:51.343Z,10.32
2022-10-11T00:09:19.689Z,10.85
2022-10-11T00:11:46.117Z,10.23
2022-10-11T00:14:15.507Z,10.00
2022-10-11T00:16:45.537Z,9.50
2022-10-11T00:19:11.964Z,9.55
2022-10-11T00:21:39.273Z,8.75
2022-10-11T00:24:06.278Z,9.93
2022-10-11T00:26:32.761Z,9.20
2022-10-11T00:29:01.287Z,10.48
2022-10-11T00:31:29.939Z,10.75
2022-10-11T00:34:02.843Z,10.52
2022-10-11T00:36:29.330Z,9.60
2022-10-11T00:38:55.775Z,9.25
2022-10-11T00:41:24.399Z,9.73
2022-10-11T00:44:15.221Z,8.50
2022-10-11T00:46:44.655Z,9.32
2022-10-11T00:49:39.053Z,9.45
2022-10-11T00:52:22.758Z,8.88
2022-10-11T00:54:52.127Z,9.27
2022-10-11T00:57:20.163Z,9.32
2022-10-11T00:59:51.127Z,9.43
2022-10-11T01:02:18.532Z,9.52
2022-10-11T01:04:45.230Z,10.45
2022-10-11T01:07:15.088Z,9.65
2022-10-11T01:09:41.479Z,9.43
2022-10-11T01:12:19.123Z,10.07
2022-10-11T01:14:56.633Z,10.52
2022-10-11T01:17:39.891Z,11.95
2022-10-11T01:20:25.060Z,9.07
2022-10-11T01:23:15.966Z,9.52
2022-10-11T01:26:18.423Z,10.68
2022-10-11T01:28:50.696Z,10.55
2022-10-11T01:31:28.772Z,10.30
2022-10-11T01:34:08.066Z,11.00
2022-10-11T01:36:42.439Z,11.15
2022-10-11T01:39:10.238Z,11.48
2022-10-11T01:41:44.038Z,11.15
2022-10-11T01:44:11.153Z,10.32
2022-10-11T01:46:40.864Z,12.10
2022-10-11T01:49:07.519Z,12.52
2022-10-11T01:51:49.383Z,11.98
2022-10-11T01:55:07.991Z,12.20
2022-10-11T01:57:51.929Z,11.68
2022-10-11T02:00:20.925Z,12.68
2022-10-11T02:02:56.028Z,12.45
2022-10-11T02:05:40.222Z,13.57
2022-10-11T02:08:08.181Z,11.02
2022-10-11T02:10:51.510Z,12.75
2022-10-11T02:13:26.892Z,12.25
2022-10-11T02:15:56.521Z,12.32
2022-10-11T02:18:32.052Z,12.00
2022-10-11T02:21:03.599Z,13.07
2022-10-11T02:23:33.895Z,12.63
2022-10-11T02:26:04.492Z,12.07
2022-10-11T02:28:36.577Z,13.05
2022-10-11T02:31:06.036Z,12.77
2022-10-11T02:34:16.947Z,13.57
2022-10-11T02:37:09.734Z,13.20
2022-10-11T02:39:50.760Z,13.40
2022-10-11T02:42:26.911Z,12.23
2022-10-11T02:45:01.314Z,13.48
2022-10-11T02:47:32.073Z,11.57
2022-10-11T02:49:59.474Z,11.77
2022-10-11T02:52:26.067Z,12.25
2022-10-11T02:54:52.510Z,11.40
2022-10-11T02:57:18.912Z,11.32
2022-10-11T02:59:45.472Z,11.52
2022-10-11T03:02:12.096Z,11.15
2022-10-11T03:04:38.730Z,12.18
2022-10-11T03:07:05.596Z,11.77
2022-10-11T03:09:31.992Z,11.98
2022-10-11T03:11:58.351Z,11.70
2022-10-11T03:14:27.815Z,13.82
2022-10-11T03:16:54.357Z,13.20
2022-10-11T03:19:20.755Z,11.35
2022-10-11T03:21:47.269Z,11.23
2022-10-11T03:24:13.715Z,9.43
2022-10-11T03:26:40.143Z,10.88
2022-10-11T03:29:07.513Z,10.65
2022-10-11T03:31:34.040Z,10.88
2022-10-11T03:34:00.471Z,11.13
2022-10-11T03:36:26.907Z,12.07
2022-10-11T03:38:53.341Z,13.13
2022-10-11T03:41:19.722Z,12.77
2022-10-11T03:43:46.193Z,14.20
2022-10-11T03:46:15.820Z,13.43
2022-10-11T03:48:42.552Z,11.50
2022-10-11T03:51:11.194Z,11.45
2022-10-11T03:53:37.712Z,13.05
2022-10-11T03:56:08.281Z,12.32
2022-10-11T03:58:35.022Z,13.20
2022-10-11T04:01:02.863Z,13.63
2022-10-11T04:03:29.895Z,13.88
2022-10-11T04:05:56.326Z,12.90
2022-10-11T04:08:22.704Z,11.75
2022-10-11T04:10:49.241Z,12.07
2022-10-11T04:13:15.824Z,11.15
2022-10-11T04:15:45.089Z,10.88
2022-10-11T04:18:11.950Z,11.68
2022-10-11T04:20:40.362Z,10.88
2022-10-11T04:23:07.126Z,12.23
2022-10-11T04:25:33.529Z,12.18
2022-10-11T04:27:59.933Z,11.95
2022-10-11T04:30:26.331Z,12.13
2022-10-11T04:32:52.741Z,13.43
2022-10-11T04:35:21.640Z,12.32
2022-10-11T04:37:51.027Z,12.32
2022-10-11T04:40:19.556Z,12.55
2022-10-11T04:42:46.101Z,13.85
2022-10-11T04:45:12.513Z,14.15
2022-10-11T04:47:40.392Z,13.32
2022-10-11T04:50:07.065Z,14.93
2022-10-11T04:52:33.564Z,14.25
2022-10-11T04:54:59.997Z,13.65
2022-10-11T04:57:26.551Z,14.95
2022-10-11T04:59:52.957Z,12.77
2022-10-11T05:02:19.447Z,13.77
2022-10-11T05:04:46.151Z,14.95
2022-10-11T05:07:12.594Z,15.32
2022-10-11T05:09:38.971Z,13.20
2022-10-11T05:12:05.880Z,14.07
2022-10-11T05:14:32.306Z,14.05
2022-10-11T05:16:58.718Z,15.23
2022-10-11T05:19:25.227Z,14.23
2022-10-11T05:21:51.632Z,16.50
2022-10-11T05:24:18.038Z,15.85
2022-10-11T05:26:44.476Z,15.20
2022-10-11T05:29:10.874Z,14.23
2022-10-11T05:31:37.312Z,14.75
2022-10-11T05:34:03.729Z,15.77
2022-10-11T05:36:30.119Z,13.80
2022-10-11T05:38:56.526Z,13.32
2022-10-11T05:41:23.000Z,15.27
2022-10-11T05:43:49.466Z,14.68
2022-10-11T05:46:16.465Z,15.10
2022-10-11T05:48:42.871Z,14.52
2022-10-11T05:51:10.955Z,15.05
2022-10-11T05:53:38.935Z,16.17
2022-10-11T05:56:06.501Z,17.20
2022-10-11T05:58:33.098Z,16.80
2022-10-11T06:00:59.598Z,15.88
2022-10-11T06:03:26.293Z,16.70
2022-10-11T06:06:03.232Z,15.73
2022-10-11T06:08:30.636Z,14.73
2022-10-11T06:10:57.195Z,17.25
2022-10-11T06:13:23.614Z,17.02
2022-10-11T06:15:50.126Z,16.63
2022-10-11T06:18:16.544Z,16.98
2022-10-11T06:20:42.964Z,16.13
2022-10-11T06:23:09.395Z,17.55
2022-10-11T06:25:35.786Z,19.08
2022-10-11T06:28:02.750Z,18.83
2022-10-11T06:30:29.224Z,19.67
2022-10-11T06:32:55.671Z,21.63
2022-10-11T06:35:22.123Z,21.88
2022-10-11T06:37:48.571Z,20.98
2022-10-11T06:40:15.092Z,23.10
2022-10-11T06:42:41.507Z,22.83
2022-10-11T06:45:08.244Z,24.00
2022-10-11T06:47:34.657Z,24.90
2022-10-11T06:50:01.125Z,23.48
2022-10-11T06:52:27.605Z,23.88
2022-10-11T06:54:54.131Z,25.75
2022-10-11T06:57:20.565Z,25.70
2022-10-11T06:59:46.971Z,27.40
2022-10-11T07:02:13.489Z,30.73
2022-10-11T07:04:40.208Z,33.67
2022-10-11T07:07:06.674Z,37.33
2022-10-11T07:09:34.247Z,45.97
2022-10-11T07:12:00.640Z,43.15
2022-10-11T07:14:27.173Z,41.38
2022-10-11T07:16:53.599Z,43.38
2022-10-11T07:19:20.038Z,44.85
2022-10-11T07:21:46.436Z,46.95
2022-10-11T07:24:12.844Z,50.13
2022-10-11T07:26:39.457Z,51.38
2022-10-11T07:29:09.995Z,50.90
2022-10-11T07:31:37.947Z,53.45
2022-10-11T07:34:04.685Z,52.80
2022-10-11T07:36:31.166Z,51.50
2022-10-11T07:38:57.611Z,51.15
2022-10-11T07:41:24.071Z,50.42
2022-10-11T07:43:50.994Z,47.50
2022-10-11T07:46:18.500Z,52.05
2022-10-11T07:48:45.047Z,48.53
2022-10-11T07:51:18.590Z,51.30
2022-10-11T07:53:47.206Z,46.92
2022-10-11T07:56:17.855Z,49.03
2022-10-11T07:58:44.580Z,49.28
2022-10-11T08:01:11.472Z,50.10
2022-10-11T08:03:38.653Z,49.45
2022-10-11T08:06:08.309Z,46.78
2022-10-11T08:08:35.813Z,48.00
2022-10-11T08:11:02.341Z,43.95
2022-10-11T08:13:28.803Z,43.05
2022-10-11T08:15:55.749Z,42.42
2022-10-11T08:18:24.100Z,38.97
2022-10-11T08:20:50.978Z,35.60
2022-10-11T08:23:18.474Z,33.03
2022-10-11T08:25:46.701Z,26.13
2022-10-11T08:28:17.956Z,25.88
2022-10-11T08:30:53.086Z,25.40
2022-10-11T08:33:21.650Z,23.92
2022-10-11T08:35:49.068Z,24.00
2022-10-11T08:38:15.592Z,23.00
2022-10-11T08:40:50.553Z,20.42
2022-10-11T08:43:43.946Z,18.50
2022-10-11T08:46:11.050Z,19.27
2022-10-11T08:48:41.957Z,16.92
2022-10-11T08:51:52.173Z,17.50
2022-10-11T08:54:49.530Z,16.40
2022-10-11T08:57:25.092Z,16.60
2022-10-11T08:59:56.130Z,15.95
2022-10-11T09:05:17.927Z,13.00
2022-10-11T09:07:47.329Z,14.45
2022-10-11T09:10:53.366Z,15.38
2022-10-11T09:13:41.614Z,12.68
2022-10-11T09:16:11.042Z,11.90
2022-10-11T09:19:06.133Z,12.00
2022-10-11T09:21:44.708Z,9.32
2022-10-11T09:24:23.862Z,9.77
2022-10-11T09:26:59.547Z,10.15
2022-10-11T09:29:44.170Z,9.23
2022-10-11T09:32:21.190Z,10.32
2022-10-11T09:34:59.544Z,11.18
2022-10-11T09:37:37.851Z,9.20
2022-10-11T09:40:17.241Z,9.13
2022-10-11T09:42:43.648Z,8.52
2022-10-11T09:45:17.836Z,7.97
2022-10-11T09:47:44.384Z,7.85
2022-10-11T09:50:22.222Z,7.43
2022-10-11T09:53:00.096Z,7.05
2022-10-11T09:55:46.468Z,7.15
2022-10-11T09:58:39.423Z,5.15
2022-10-11T10:01:22.991Z,6.28
2022-10-11T10:04:10.205Z,4.43
2022-10-11T10:06:37.176Z,4.63
2022-10-11T10:09:25.128Z,4.13
2022-10-11T10:11:52.163Z,2.63
2022-10-11T10:14:27.297Z,3.25
2022-10-11T10:17:05.688Z,3.65
2022-10-11T10:19:50.829Z,3.80
2022-10-11T10:22:27.354Z,4.13
2022-10-11T10:24:54.914Z,2.95
2022-10-11T10:27:26.897Z,3.15
2022-10-11T10:30:08.818Z,3.92
2022-10-11T10:32:50.806Z,3.10
2022-10-11T10:35:33.794Z,2.88
2022-10-11T10:38:02.850Z,2.80
2022-10-11T10:40:50.419Z,3.22
2022-10-11T10:43:19.764Z,3.72
2022-10-11T10:46:05.337Z,2.30
2022-10-11T10:49:19.106Z,3.35
2022-10-11T10:52:09.035Z,3.72
2022-10-11T10:54:39.418Z,3.05
2022-10-11T10:57:19.985Z,4.57
2022-10-11T11:00:04.155Z,3.40
2022-10-11T11:03:01.204Z,3.58
2022-10-11T11:05:55.037Z,3.67
2022-10-11T11:08:40.239Z,2.90
2022-10-11T11:11:15.741Z,2.60
2022-10-11T11:13:53.958Z,2.88
2022-10-11T11:16:26.714Z,2.20
2022-10-11T11:19:14.989Z,2.30
2022-10-11T11:21:48.615Z,3.00
2022-10-11T11:24:33.324Z,3.05
2022-10-11T11:27:37.309Z,2.53
2022-10-11T11:30:09.461Z,2.50
2022-10-11T11:32:57.482Z,3.10
2022-10-11T11:35:48.949Z,3.15
2022-10-11T11:38:45.116Z,3.50
2022-10-11T11:41:20.000Z,2.88
2022-10-11T11:43:57.070Z,3.80
2022-10-11T11:46:55.488Z,3.47
2022-10-11T11:49:31.149Z,2.42
2022-10-11T11:51:58.649Z,2.75
2022-10-11T11:54:48.520Z,3.25
2022-10-11T11:57:39.834Z,3.80
2022-10-11T12:00:14.313Z,1.90
2022-10-11T12:02:44.435Z,2.92
2022-10-11T12:05:13.462Z,2.95
2022-10-11T12:08:24.290Z,2.90
2022-10-11T12:10:50.570Z,2.97
2022-10-11T12:13:32.141Z,2.47
2022-10-11T12:16:10.151Z,2.80
2022-10-11T12:18:56.706Z,2.60
2022-10-11T12:21:36.264Z,2.58
2022-10-11T12:24:13.234Z,2.63
2022-10-11T12:26:48.583Z,3.17
2022-10-11T12:29:41.442Z,3.03
2022-10-11T12:32:08.968Z,2.45
2022-10-11T12:34:36.409Z,2.80
2022-10-11T12:37:32.124Z,2.45
2022-10-11T12:39:59.587Z,3.13
2022-10-11T12:42:34.205Z,3.20
2022-10-11T12:45:13.029Z,2.58
2022-10-11T12:47:52.246Z,2.63
2022-10-11T12:50:29.203Z,2.13
2022-10-11T12:53:11.630Z,3.10
2022-10-11T12:55:56.025Z,3.05
2022-10-11T12:58:46.590Z,3.03
2022-10-11T13:01:17.515Z,2.50
2022-10-11T13:03:47.070Z,2.53
2022-10-11T13:06:19.829Z,2.63
2022-10-11T13:08:54.508Z,2.72
2022-10-11T13:11:43.033Z,2.33
2022-10-11T13:14:19.573Z,2.53
2022-10-11T13:16:50.746Z,2.03
2022-10-11T13:19:17.620Z,2.30
2022-10-11T13:21:50.598Z,2.58
2022-10-11T13:24:19.189Z,2.67
2022-10-11T13:26:48.187Z,2.60
2022-10-11T13:29:16.363Z,3.95
2022-10-11T13:31:45.653Z,2.40
2022-10-11T13:34:12.673Z,2.67
2022-10-11T13:36:39.214Z,2.83
2022-10-11T13:39:05.730Z,3.42
2022-10-11T13:41:32.567Z,2.25
2022-10-11T13:43:59.957Z,2.13
2022-10-11T13:46:28.111Z,2.28
2022-10-11T13:49:06.644Z,3.28
2022-10-11T13:51:35.010Z,2.80
2022-10-11T13:54:09.448Z,2.55
2022-10-11T13:56:46.091Z,2.55
2022-10-11T13:59:24.892Z,3.17
2022-10-11T14:01:58.345Z,2.70
2022-10-11T14:04:29.508Z,2.63
2022-10-11T14:07:02.493Z,2.78
2022-10-11T14:09:30.950Z,2.88
2022-10-11T14:12:22.946Z,2.47
2022-10-11T14:14:49.356Z,3.05
2022-10-11T14:17:31.913Z,2.60
2022-10-11T14:20:20.399Z,2.33
2022-10-11T14:22:47.166Z,3.55
2022-10-11T14:25:13.990Z,2.97
2022-10-11T14:27:42.410Z,2.40
2022-10-11T14:30:27.286Z,2.40
2022-10-11T14:32:56.653Z,2.53
2022-10-11T14:35:31.628Z,3.17
2022-10-11T14:37:58.491Z,2.40
2022-10-11T14:40:27.595Z,2.75
2022-10-11T14:42:54.928Z,2.78
2022-10-11T14:45:21.460Z,2.70
2022-10-11T14:47:48.296Z,1.98
2022-10-11T14:50:35.363Z,2.70
2022-10-11T14:53:02.898Z,3.33
2022-10-11T14:55:29.992Z,3.72
2022-10-11T14:57:56.822Z,2.78
2022-10-11T15:00:26.403Z,2.40
2022-10-11T15:02:53.287Z,2.63
2022-10-11T15:05:20.997Z,3.33
2022-10-11T15:07:47.757Z,2.45
2022-10-11T15:10:29.640Z,2.78
2022-10-11T15:12:56.945Z,2.40
2022-10-11T15:15:25.797Z,2.95
2022-10-11T15:17:57.300Z,2.45
2022-10-11T15:20:30.102Z,2.45
2022-10-11T15:22:57.691Z,2.35
2022-10-11T15:25:24.818Z,3.05
2022-10-11T15:27:51.699Z,2.22
2022-10-11T15:30:26.864Z,8.10
2022-10-11T15:32:53.500Z,4.03
2022-10-11T15:35:21.272Z,2.90
2022-10-11T15:37:47.673Z,4.22
2022-10-11T15:40:30.927Z,2.88
2022-10-11T15:42:57.534Z,3.15
2022-10-11T15:45:24.344Z,2.88
2022-10-11T15:47:51.299Z,4.03
2022-10-11T15:50:36.752Z,2.42
2022-10-11T15:53:06.963Z,2.55
2022-10-11T15:55:35.773Z,2.33
2022-10-11T15:58:02.313Z,2.00
2022-10-11T16:00:29.387Z,2.53
2022-10-11T16:02:56.900Z,2.13
2022-10-11T16:05:25.352Z,2.25
2022-10-11T16:07:53.087Z,2.92
2022-10-11T16:10:20.063Z,5.07
2022-10-11T16:12:46.488Z,7.45
2022-10-11T16:15:13.580Z,6.40
2022-10-11T16:17:39.969Z,4.93
2022-10-11T16:20:07.455Z,2.40
2022-10-11T16:22:34.918Z,3.25
2022-10-11T16:25:02.267Z,2.95
2022-10-11T16:27:28.755Z,3.72
2022-10-11T16:29:55.134Z,3.25
2022-10-11T16:32:22.119Z,3.10
2022-10-11T16:34:48.645Z,3.25
2022-10-11T16:37:15.079Z,2.78
2022-10-11T16:39:41.597Z,2.58
2022-10-11T16:42:08.188Z,2.22
2022-10-11T16:44:34.570Z,2.33
2022-10-11T16:47:00.945Z,2.45
2022-10-11T16:49:28.170Z,2.20
2022-10-11T16:51:56.541Z,2.83
2022-10-11T16:54:22.983Z,2.58
2022-10-11T16:56:49.990Z,2.33
2022-10-11T16:59:16.745Z,2.67
2022-10-11T17:01:43.333Z,3.05
2022-10-11T17:04:09.739Z,2.65
2022-10-11T17:06:40.176Z,3.22
2022-10-11T17:09:06.987Z,4.05
2022-10-11T17:11:33.581Z,3.60
2022-10-11T17:14:00.508Z,3.20
2022-10-11T17:16:27.103Z,4.00
2022-10-11T17:18:53.623Z,3.92
2022-10-11T17:21:21.198Z,3.35
2022-10-11T17:23:48.999Z,5.13
2022-10-11T17:26:19.412Z,5.15
2022-10-11T17:28:46.052Z,4.28
2022-10-11T17:31:12.554Z,4.00
2022-10-11T17:33:39.066Z,3.65
2022-10-11T17:36:34.382Z,3.38
2022-10-11T17:39:02.756Z,3.90
2022-10-11T17:41:32.118Z,3.53
2022-10-11T17:43:59.333Z,4.22
2022-10-11T17:46:27.559Z,3.42
2022-10-11T17:48:55.519Z,4.35
2022-10-11T17:51:22.609Z,3.22
2022-10-11T17:53:50.830Z,3.78
2022-10-11T17:56:28.143Z,4.20
2022-10-11T17:58:56.800Z,3.28
2022-10-11T18:01:25.265Z,3.92
2022-10-11T18:03:55.062Z,4.22
2022-10-11T18:06:21.670Z,4.40
2022-10-11T18:08:48.051Z,4.70
2022-10-11T18:11:19.947Z,5.30
2022-10-11T18:13:52.114Z,5.68
2022-10-11T18:16:21.116Z,4.78
2022-10-11T18:18:47.694Z,4.93
2022-10-11T18:21:14.442Z,6.63
2022-10-11T18:23:41.149Z,6.50
2022-10-11T18:26:12.771Z,6.60
2022-10-11T18:28:40.594Z,7.43
2022-10-11T18:31:13.646Z,8.75
2022-10-11T18:33:41.501Z,8.05
2022-10-11T18:36:09.171Z,8.32
2022-10-11T18:38:35.981Z,8.18
2022-10-11T18:41:10.446Z,8.85
2022-10-11T18:43:37.163Z,9.32
2022-10-11T18:46:12.649Z,9.48
2022-10-11T18:48:43.834Z,9.45
2022-10-11T18:51:14.006Z,8.23
2022-10-11T18:53:41.083Z,8.10
2022-10-11T18:56:09.204Z,8.68
2022-10-11T18:58:37.092Z,8.15
2022-10-11T19:01:05.423Z,9.07
2022-10-11T19:03:35.160Z,7.90
2022-10-11T19:06:07.211Z,8.30
2022-10-11T19:08:34.020Z,9.77
2022-10-11T19:11:07.442Z,7.97
2022-10-11T19:13:34.960Z,8.23
2022-10-11T19:16:06.114Z,7.72
2022-10-11T19:18:34.130Z,7.45
2022-10-11T19:21:04.907Z,7.75
2022-10-11T19:26:01.532Z,6.28
2022-10-11T19:28:29.140Z,6.35
2022-10-11T19:31:03.802Z,5.68
2022-10-11T19:33:36.604Z,6.75
2022-10-11T19:36:06.643Z,5.97
2022-10-11T19:38:34.595Z,6.60
2022-10-11T19:41:04.547Z,7.63
2022-10-11T19:43:31.994Z,8.20
2022-10-11T19:46:01.968Z,7.60
2022-10-11T19:48:28.602Z,7.38
2022-10-11T19:51:12.215Z,7.78
2022-10-11T19:53:39.198Z,7.10
2022-10-11T19:56:08.456Z,7.25
2022-10-11T19:58:37.239Z,8.18
2022-10-11T20:01:07.196Z,8.20
2022-10-11T20:03:33.944Z,8.43
2022-10-11T20:06:05.479Z,8.40
2022-10-11T20:08:32.306Z,8.77
2022-10-11T20:10:59.769Z,9.85
2022-10-11T20:13:31.160Z,9.80
2022-10-11T20:16:03.279Z,10.10
2022-10-11T20:18:30.108Z,9.07
2022-10-11T20:20:59.223Z,8.00
2022-10-11T20:23:27.761Z,8.05
2022-10-11T20:26:01.549Z,7.45
2022-10-11T20:28:28.927Z,8.27
2022-10-11T20:30:55.521Z,6.28
2022-10-11T20:33:22.211Z,6.50
2022-10-11T20:35:58.510Z,6.90
2022-10-11T20:38:25.343Z,6.05
2022-10-11T20:40:51.733Z,6.72
2022-10-11T20:43:18.110Z,5.50
2022-10-11T20:45:44.587Z,5.57
2022-10-11T20:48:11.245Z,5.25
2022-10-11T20:50:37.609Z,5.03
2022-10-11T20:53:04.033Z,5.05
2022-10-11T20:55:30.504Z,4.63
2022-10-11T20:57:56.906Z,4.47
2022-10-11T21:00:23.286Z,4.55
2022-10-11T21:02:51.141Z,4.93
2022-10-11T21:05:17.563Z,5.35
2022-10-11T21:07:44.434Z,4.93
2022-10-11T21:10:13.135Z,5.93
2022-10-11T21:12:39.511Z,6.57
2022-10-11T21:15:06.475Z,4.80
2022-10-11T21:17:32.899Z,5.72
2022-10-11T21:20:01.838Z,4.97
2022-10-11T21:22:28.205Z,4.82
2022-10-11T21:24:54.594Z,5.53
2022-10-11T21:27:20.990Z,6.18
2022-10-11T21:29:47.433Z,5.70
2022-10-11T21:32:14.615Z,5.70
2022-10-11T21:34:41.214Z,6.40
2022-10-11T21:37:10.016Z,6.82
2022-10-11T21:39:36.477Z,6.20
2022-10-11T21:42:02.852Z,7.03
2022-10-11T21:44:31.919Z,7.03
2022-10-11T21:47:07.208Z,6.45
2022-10-11T21:49:34.217Z,6.18
2022-10-11T21:52:00.677Z,6.07
2022-10-11T21:54:27.046Z,6.80
2022-10-11T21:56:53.492Z,6.68
2022-10-11T21:59:19.891Z,6.90
2022-10-11T22:01:46.366Z,6.63
2022-10-11T22:04:12.843Z,6.78
2022-10-11T22:06:39.942Z,7.95
2022-10-11T22:09:07.564Z,7.20
2022-10-11T22:11:34.307Z,7.55
2022-10-11T22:14:01.033Z,7.00
2022-10-11T22:16:27.458Z,6.95
2022-10-11T22:18:54.064Z,7.70
2022-10-11T22:21:22.385Z,8.18
2022-10-11T22:23:50.036Z,7.63
2022-10-11T22:26:19.947Z,7.78
2022-10-11T22:28:46.778Z,8.23
2022-10-11T22:31:13.992Z,8.73
2022-10-11T22:33:40.430Z,8.68
2022-10-11T22:36:11.870Z,8.13
2022-10-11T22:38:40.108Z,7.80
2022-10-11T22:41:06.984Z,8.27
2022-10-11T22:43:33.678Z,8.15
2022-10-11T22:46:00.173Z,7.95
2022-10-11T22:48:26.784Z,9.70
2022-10-11T22:50:54.062Z,9.00
2022-10-11T22:53:20.550Z,10.35
2022-10-11T22:55:47.629Z,11.20
2022-10-11T22:58:14.415Z,11.15
2022-10-11T23:00:40.879Z,10.35
2022-10-11T23:03:07.381Z,10.02
2022-10-11T23:05:34.680Z,11.05
2022-10-11T23:08:01.058Z,10.20
2022-10-11T23:10:27.617Z,10.90
2022-10-11T23:12:53.990Z,11.77
2022-10-11T23:15:20.380Z,10.82
2022-10-11T23:17:46.805Z,9.77
2022-10-11T23:20:13.217Z,11.02
2022-10-11T23:22:39.589Z,10.20
2022-10-11T23:25:06.594Z,10.98
2022-10-11T23:27:32.957Z,11.75
2022-10-11T23:29:59.323Z,11.10
2022-10-11T23:32:25.690Z,11.38
2022-10-11T23:34:52.059Z,11.13
2022-10-11T23:37:18.416Z,11.60
2022-10-11T23:39:45.181Z,11.98
2022-10-11T23:42:11.583Z,13.27
2022-10-11T23:44:38.013Z,13.95
2022-10-11T23:47:04.415Z,14.60
2022-10-11T23:49:30.779Z,13.15
2022-10-11T23:51:57.248Z,13.77
2022-10-11T23:54:23.705Z,14.20
2022-10-11T23:56:50.067Z,13.90
2022-10-11T23:59:16.434Z,14.10
